sensor_id;sensor_type;location;lat;lon;timestamp;temperature;humidity
790;DHT22;378;48.844;9.156;2022-08-25T00:01:25;20.60;99.90
790;DHT22;378;48.844;9.156;2022-08-25T00:03:52;20.60;99.90
790;DHT22;378;48.844;9.156;2022-08-25T00:06:20;20.50;99.90
790;DHT22;378;48.844;9.156;2022-08-25T00:08:49;20.40;99.90
790;DHT22;378;48.844;9.156;2022-08-25T00:11:19;20.40;99.90
790;DHT22;378;48.844;9.156;2022-08-25T00:13:50;20.30;99.90
790;DHT22;378;48.844;9.156;2022-08-25T00:16:20;20.30;99.90
790;DHT22;378;48.844;9.156;2022-08-25T00:18:50;20.20;99.90
790;DHT22;378;48.844;9.156;2022-08-25T00:21:18;20.20;99.90
790;DHT22;378;48.844;9.156;2022-08-25T00:23:45;20.10;99.90
790;DHT22;378;48.844;9.156;2022-08-25T00:26:14;20.10;99.90
790;DHT22;378;48.844;9.156;2022-08-25T00:28:41;20.10;99.90
790;DHT22;378;48.844;9.156;2022-08-25T00:31:13;20.10;99.90
790;DHT22;378;48.844;9.156;2022-08-25T00:33:40;20.10;99.90
790;DHT22;378;48.844;9.156;2022-08-25T00:36:08;20.10;99.90
790;DHT22;378;48.844;9.156;2022-08-25T00:38:37;20.10;99.90
790;DHT22;378;48.844;9.156;2022-08-25T00:41:04;20.10;99.90
790;DHT22;378;48.844;9.156;2022-08-25T00:43:43;20.10;99.90
790;DHT22;378;48.844;9.156;2022-08-25T00:46:14;20.00;99.90
790;DHT22;378;48.844;9.156;2022-08-25T00:48:43;20.00;99.90
790;DHT22;378;48.844;9.156;2022-08-25T00:51:15;20.00;99.90
790;DHT22;378;48.844;9.156;2022-08-25T00:53:43;20.00;99.90
790;DHT22;378;48.844;9.156;2022-08-25T00:56:10;20.00;99.90
790;DHT22;378;48.844;9.156;2022-08-25T00:58:39;20.00;99.90
790;DHT22;378;48.844;9.156;2022-08-25T01:01:06;19.90;99.90
790;DHT22;378;48.844;9.156;2022-08-25T01:03:35;19.90;99.90
790;DHT22;378;48.844;9.156;2022-08-25T01:06:03;19.90;99.90
790;DHT22;378;48.844;9.156;2022-08-25T01:08:32;19.90;99.90
790;DHT22;378;48.844;9.156;2022-08-25T01:11:03;19.80;99.90
790;DHT22;378;48.844;9.156;2022-08-25T01:13:35;19.80;99.90
790;DHT22;378;48.844;9.156;2022-08-25T01:16:03;19.80;99.90
790;DHT22;378;48.844;9.156;2022-08-25T01:18:44;19.70;99.90
790;DHT22;378;48.844;9.156;2022-08-25T01:21:14;19.70;99.90
790;DHT22;378;48.844;9.156;2022-08-25T01:23:41;19.60;99.90
790;DHT22;378;48.844;9.156;2022-08-25T01:26:10;19.60;99.90
790;DHT22;378;48.844;9.156;2022-08-25T01:28:39;19.60;99.90
790;DHT22;378;48.844;9.156;2022-08-25T01:31:27;19.60;99.90
790;DHT22;378;48.844;9.156;2022-08-25T01:33:55;19.60;99.90
790;DHT22;378;48.844;9.156;2022-08-25T01:36:25;19.60;99.90
790;DHT22;378;48.844;9.156;2022-08-25T01:38:52;19.50;99.90
790;DHT22;378;48.844;9.156;2022-08-25T01:41:34;19.50;99.90
790;DHT22;378;48.844;9.156;2022-08-25T01:44:03;19.50;99.90
790;DHT22;378;48.844;9.156;2022-08-25T01:46:31;19.50;99.90
790;DHT22;378;48.844;9.156;2022-08-25T01:48:59;19.50;99.90
790;DHT22;378;48.844;9.156;2022-08-25T01:51:28;19.50;99.90
790;DHT22;378;48.844;9.156;2022-08-25T01:53:58;19.50;99.90
790;DHT22;378;48.844;9.156;2022-08-25T01:56:25;19.50;99.90
790;DHT22;378;48.844;9.156;2022-08-25T01:58:52;19.40;99.90
790;DHT22;378;48.844;9.156;2022-08-25T02:01:21;19.40;99.90
790;DHT22;378;48.844;9.156;2022-08-25T02:03:50;19.40;99.90
790;DHT22;378;48.844;9.156;2022-08-25T02:06:20;19.30;99.90
790;DHT22;378;48.844;9.156;2022-08-25T02:08:51;19.20;99.90
790;DHT22;378;48.844;9.156;2022-08-25T02:11:18;19.10;99.90
790;DHT22;378;48.844;9.156;2022-08-25T02:13:45;19.10;99.90
790;DHT22;378;48.844;9.156;2022-08-25T02:16:17;19.00;99.90
790;DHT22;378;48.844;9.156;2022-08-25T02:18:45;19.00;99.90
790;DHT22;378;48.844;9.156;2022-08-25T02:21:12;19.00;99.90
790;DHT22;378;48.844;9.156;2022-08-25T02:23:39;19.00;99.90
790;DHT22;378;48.844;9.156;2022-08-25T02:26:08;19.00;99.90
790;DHT22;378;48.844;9.156;2022-08-25T02:28:35;19.00;99.90
790;DHT22;378;48.844;9.156;2022-08-25T02:31:03;18.90;99.90
790;DHT22;378;48.844;9.156;2022-08-25T02:33:30;18.90;99.90
790;DHT22;378;48.844;9.156;2022-08-25T02:35:58;18.90;99.90
790;DHT22;378;48.844;9.156;2022-08-25T02:38:26;18.80;99.90
790;DHT22;378;48.844;9.156;2022-08-25T02:40:53;18.80;99.90
790;DHT22;378;48.844;9.156;2022-08-25T02:43:22;18.80;99.90
790;DHT22;378;48.844;9.156;2022-08-25T02:45:49;18.80;99.90
790;DHT22;378;48.844;9.156;2022-08-25T02:48:16;18.80;99.90
790;DHT22;378;48.844;9.156;2022-08-25T02:50:45;18.70;99.90
790;DHT22;378;48.844;9.156;2022-08-25T02:53:12;18.70;99.90
790;DHT22;378;48.844;9.156;2022-08-25T02:55:39;18.60;99.90
790;DHT22;378;48.844;9.156;2022-08-25T02:58:06;18.60;99.90
790;DHT22;378;48.844;9.156;2022-08-25T03:00:36;18.60;99.90
790;DHT22;378;48.844;9.156;2022-08-25T03:03:03;18.50;99.90
790;DHT22;378;48.844;9.156;2022-08-25T03:05:33;18.40;99.90
790;DHT22;378;48.844;9.156;2022-08-25T03:08:01;18.50;99.90
790;DHT22;378;48.844;9.156;2022-08-25T03:10:28;18.50;99.90
790;DHT22;378;48.844;9.156;2022-08-25T03:12:54;18.40;99.90
790;DHT22;378;48.844;9.156;2022-08-25T03:15:21;18.40;99.90
790;DHT22;378;48.844;9.156;2022-08-25T03:17:51;18.40;99.90
790;DHT22;378;48.844;9.156;2022-08-25T03:20:18;18.40;99.90
790;DHT22;378;48.844;9.156;2022-08-25T03:22:45;18.50;99.90
790;DHT22;378;48.844;9.156;2022-08-25T03:25:12;18.40;99.90
790;DHT22;378;48.844;9.156;2022-08-25T03:27:56;18.40;99.90
790;DHT22;378;48.844;9.156;2022-08-25T03:30:23;18.40;99.90
790;DHT22;378;48.844;9.156;2022-08-25T03:32:52;18.40;99.90
790;DHT22;378;48.844;9.156;2022-08-25T03:35:19;18.30;99.90
790;DHT22;378;48.844;9.156;2022-08-25T03:37:46;18.30;99.90
790;DHT22;378;48.844;9.156;2022-08-25T03:40:14;18.30;99.90
790;DHT22;378;48.844;9.156;2022-08-25T03:42:43;18.30;99.90
790;DHT22;378;48.844;9.156;2022-08-25T03:45:11;18.30;99.90
790;DHT22;378;48.844;9.156;2022-08-25T03:47:39;18.20;99.90
790;DHT22;378;48.844;9.156;2022-08-25T03:50:10;18.20;99.90
790;DHT22;378;48.844;9.156;2022-08-25T03:52:37;18.20;99.90
790;DHT22;378;48.844;9.156;2022-08-25T03:55:07;18.20;99.90
790;DHT22;378;48.844;9.156;2022-08-25T03:57:35;18.20;99.90
790;DHT22;378;48.844;9.156;2022-08-25T04:00:04;18.20;99.90
790;DHT22;378;48.844;9.156;2022-08-25T04:02:31;18.10;99.90
790;DHT22;378;48.844;9.156;2022-08-25T04:04:58;18.10;99.90
790;DHT22;378;48.844;9.156;2022-08-25T04:07:26;18.00;99.90
790;DHT22;378;48.844;9.156;2022-08-25T04:09:53;18.00;99.90
790;DHT22;378;48.844;9.156;2022-08-25T04:12:20;17.90;99.90
790;DHT22;378;48.844;9.156;2022-08-25T04:14:47;17.90;99.90
790;DHT22;378;48.844;9.156;2022-08-25T04:17:14;17.90;99.90
790;DHT22;378;48.844;9.156;2022-08-25T04:19:42;17.90;99.90
790;DHT22;378;48.844;9.156;2022-08-25T04:22:08;17.90;99.90
790;DHT22;378;48.844;9.156;2022-08-25T04:24:37;17.80;99.90
790;DHT22;378;48.844;9.156;2022-08-25T04:27:04;17.80;99.90
790;DHT22;378;48.844;9.156;2022-08-25T04:29:31;17.80;99.90
790;DHT22;378;48.844;9.156;2022-08-25T04:31:58;17.80;99.90
790;DHT22;378;48.844;9.156;2022-08-25T04:34:26;17.80;99.90
790;DHT22;378;48.844;9.156;2022-08-25T04:36:53;17.80;99.90
790;DHT22;378;48.844;9.156;2022-08-25T04:39:20;17.80;99.90
790;DHT22;378;48.844;9.156;2022-08-25T04:41:49;17.90;99.90
790;DHT22;378;48.844;9.156;2022-08-25T04:44:17;17.90;99.90
790;DHT22;378;48.844;9.156;2022-08-25T04:46:44;17.80;99.90
790;DHT22;378;48.844;9.156;2022-08-25T04:49:11;17.90;99.90
790;DHT22;378;48.844;9.156;2022-08-25T04:51:39;17.90;99.90
790;DHT22;378;48.844;9.156;2022-08-25T04:54:10;17.90;99.90
790;DHT22;378;48.844;9.156;2022-08-25T04:56:39;17.90;99.90
790;DHT22;378;48.844;9.156;2022-08-25T04:59:09;18.00;99.90
790;DHT22;378;48.844;9.156;2022-08-25T05:01:37;18.10;99.90
790;DHT22;378;48.844;9.156;2022-08-25T05:04:07;18.40;99.90
790;DHT22;378;48.844;9.156;2022-08-25T05:06:34;19.00;99.90
790;DHT22;378;48.844;9.156;2022-08-25T05:09:03;19.60;99.90
790;DHT22;378;48.844;9.156;2022-08-25T05:11:30;20.30;99.90
790;DHT22;378;48.844;9.156;2022-08-25T05:13:59;20.90;99.90
790;DHT22;378;48.844;9.156;2022-08-25T05:16:28;21.30;99.90
790;DHT22;378;48.844;9.156;2022-08-25T05:18:56;21.50;99.90
790;DHT22;378;48.844;9.156;2022-08-25T05:21:26;21.80;99.90
790;DHT22;378;48.844;9.156;2022-08-25T05:23:55;22.10;99.90
790;DHT22;378;48.844;9.156;2022-08-25T05:26:24;22.50;99.90
790;DHT22;378;48.844;9.156;2022-08-25T05:28:53;22.90;99.90
790;DHT22;378;48.844;9.156;2022-08-25T05:31:21;23.20;99.90
790;DHT22;378;48.844;9.156;2022-08-25T05:33:50;23.50;99.90
790;DHT22;378;48.844;9.156;2022-08-25T05:36:19;23.80;99.90
790;DHT22;378;48.844;9.156;2022-08-25T05:38:46;24.30;99.90
790;DHT22;378;48.844;9.156;2022-08-25T05:41:16;24.60;99.90
790;DHT22;378;48.844;9.156;2022-08-25T05:43:44;24.70;99.90
790;DHT22;378;48.844;9.156;2022-08-25T05:46:13;24.40;99.90
790;DHT22;378;48.844;9.156;2022-08-25T05:48:40;23.70;99.90
790;DHT22;378;48.844;9.156;2022-08-25T05:51:09;23.10;99.90
790;DHT22;378;48.844;9.156;2022-08-25T05:53:38;22.50;99.90
790;DHT22;378;48.844;9.156;2022-08-25T05:56:06;22.30;99.90
790;DHT22;378;48.844;9.156;2022-08-25T05:58:33;22.50;99.90
790;DHT22;378;48.844;9.156;2022-08-25T06:01:01;23.00;99.90
790;DHT22;378;48.844;9.156;2022-08-25T06:03:49;23.40;99.90
790;DHT22;378;48.844;9.156;2022-08-25T06:06:20;24.10;99.90
790;DHT22;378;48.844;9.156;2022-08-25T06:08:47;24.70;99.90
790;DHT22;378;48.844;9.156;2022-08-25T06:11:15;24.90;99.90
790;DHT22;378;48.844;9.156;2022-08-25T06:13:42;25.00;99.90
790;DHT22;378;48.844;9.156;2022-08-25T06:16:10;25.20;99.90
790;DHT22;378;48.844;9.156;2022-08-25T06:18:37;25.50;99.90
790;DHT22;378;48.844;9.156;2022-08-25T06:21:09;25.70;99.90
790;DHT22;378;48.844;9.156;2022-08-25T06:23:39;25.90;99.90
790;DHT22;378;48.844;9.156;2022-08-25T06:26:09;25.90;99.90
790;DHT22;378;48.844;9.156;2022-08-25T06:28:36;25.90;99.90
790;DHT22;378;48.844;9.156;2022-08-25T06:31:04;25.60;99.90
790;DHT22;378;48.844;9.156;2022-08-25T06:33:31;25.50;99.90
790;DHT22;378;48.844;9.156;2022-08-25T06:35:58;25.10;99.90
790;DHT22;378;48.844;9.156;2022-08-25T06:38:25;25.00;99.90
790;DHT22;378;48.844;9.156;2022-08-25T06:40:54;25.20;99.90
790;DHT22;378;48.844;9.156;2022-08-25T06:43:22;25.20;99.90
790;DHT22;378;48.844;9.156;2022-08-25T06:45:49;25.40;99.90
790;DHT22;378;48.844;9.156;2022-08-25T06:48:16;25.60;99.90
790;DHT22;378;48.844;9.156;2022-08-25T06:50:43;25.50;99.90
790;DHT22;378;48.844;9.156;2022-08-25T06:53:10;25.80;99.90
790;DHT22;378;48.844;9.156;2022-08-25T06:55:38;26.00;99.90
790;DHT22;378;48.844;9.156;2022-08-25T06:58:07;26.20;99.90
790;DHT22;378;48.844;9.156;2022-08-25T07:00:34;26.50;99.90
790;DHT22;378;48.844;9.156;2022-08-25T07:03:01;26.70;99.90
790;DHT22;378;48.844;9.156;2022-08-25T07:05:29;27.10;99.90
790;DHT22;378;48.844;9.156;2022-08-25T07:07:56;27.30;99.90
790;DHT22;378;48.844;9.156;2022-08-25T07:10:23;27.40;99.90
790;DHT22;378;48.844;9.156;2022-08-25T07:12:50;27.20;99.90
790;DHT22;378;48.844;9.156;2022-08-25T07:15:19;27.10;99.90
790;DHT22;378;48.844;9.156;2022-08-25T07:17:46;27.40;99.90
790;DHT22;378;48.844;9.156;2022-08-25T07:20:13;27.60;99.90
790;DHT22;378;48.844;9.156;2022-08-25T07:22:41;27.60;99.90
790;DHT22;378;48.844;9.156;2022-08-25T07:25:09;27.50;99.90
790;DHT22;378;48.844;9.156;2022-08-25T07:27:37;27.60;99.90
790;DHT22;378;48.844;9.156;2022-08-25T07:30:06;27.60;99.90
790;DHT22;378;48.844;9.156;2022-08-25T07:32:35;27.80;99.90
790;DHT22;378;48.844;9.156;2022-08-25T07:35:02;27.60;99.90
790;DHT22;378;48.844;9.156;2022-08-25T07:37:43;27.10;99.90
790;DHT22;378;48.844;9.156;2022-08-25T07:40:12;26.80;99.90
790;DHT22;378;48.844;9.156;2022-08-25T07:42:40;26.80;99.90
790;DHT22;378;48.844;9.156;2022-08-25T07:45:08;26.90;99.90
790;DHT22;378;48.844;9.156;2022-08-25T07:47:37;27.10;99.90
790;DHT22;378;48.844;9.156;2022-08-25T07:50:05;27.40;99.90
790;DHT22;378;48.844;9.156;2022-08-25T07:52:33;27.20;99.90
790;DHT22;378;48.844;9.156;2022-08-25T07:55:00;27.20;99.90
790;DHT22;378;48.844;9.156;2022-08-25T07:57:27;27.80;99.90
790;DHT22;378;48.844;9.156;2022-08-25T07:59:54;28.10;99.90
790;DHT22;378;48.844;9.156;2022-08-25T08:02:23;28.40;99.90
790;DHT22;378;48.844;9.156;2022-08-25T08:04:52;28.60;99.90
790;DHT22;378;48.844;9.156;2022-08-25T08:07:24;28.60;99.90
790;DHT22;378;48.844;9.156;2022-08-25T08:09:52;28.50;99.90
790;DHT22;378;48.844;9.156;2022-08-25T08:12:20;28.30;99.90
790;DHT22;378;48.844;9.156;2022-08-25T08:14:48;28.30;99.90
790;DHT22;378;48.844;9.156;2022-08-25T08:17:15;28.30;99.90
790;DHT22;378;48.844;9.156;2022-08-25T08:19:42;28.00;99.90
790;DHT22;378;48.844;9.156;2022-08-25T08:22:11;28.00;99.90
790;DHT22;378;48.844;9.156;2022-08-25T08:24:40;28.50;99.90
790;DHT22;378;48.844;9.156;2022-08-25T08:27:10;28.50;99.90
790;DHT22;378;48.844;9.156;2022-08-25T08:29:38;28.40;99.90
790;DHT22;378;48.844;9.156;2022-08-25T08:32:07;28.60;99.90
790;DHT22;378;48.844;9.156;2022-08-25T08:34:34;28.50;99.90
790;DHT22;378;48.844;9.156;2022-08-25T08:37:01;28.40;99.90
790;DHT22;378;48.844;9.156;2022-08-25T08:39:30;28.00;99.90
790;DHT22;378;48.844;9.156;2022-08-25T08:48:27;28.00;99.90
790;DHT22;378;48.844;9.156;2022-08-25T08:51:06;28.00;99.90
790;DHT22;378;48.844;9.156;2022-08-25T08:53:44;28.30;99.90
790;DHT22;378;48.844;9.156;2022-08-25T08:56:15;28.90;99.90
790;DHT22;378;48.844;9.156;2022-08-25T08:58:46;28.80;99.90
790;DHT22;378;48.844;9.156;2022-08-25T09:01:18;29.20;99.90
790;DHT22;378;48.844;9.156;2022-08-25T09:03:53;29.30;99.90
790;DHT22;378;48.844;9.156;2022-08-25T09:06:26;29.60;99.90
790;DHT22;378;48.844;9.156;2022-08-25T09:08:57;29.60;99.90
790;DHT22;378;48.844;9.156;2022-08-25T09:11:49;29.70;99.90
790;DHT22;378;48.844;9.156;2022-08-25T09:14:31;29.80;99.90
790;DHT22;378;48.844;9.156;2022-08-25T09:17:05;29.90;99.90
790;DHT22;378;48.844;9.156;2022-08-25T09:20:02;30.00;99.90
790;DHT22;378;48.844;9.156;2022-08-25T09:22:45;29.60;99.90
790;DHT22;378;48.844;9.156;2022-08-25T09:25:19;29.40;99.90
790;DHT22;378;48.844;9.156;2022-08-25T09:27:56;29.70;99.90
790;DHT22;378;48.844;9.156;2022-08-25T09:30:27;29.70;99.90
790;DHT22;378;48.844;9.156;2022-08-25T09:32:57;29.70;99.90
790;DHT22;378;48.844;9.156;2022-08-25T09:35:32;29.60;99.90
790;DHT22;378;48.844;9.156;2022-08-25T09:38:01;30.10;99.90
790;DHT22;378;48.844;9.156;2022-08-25T09:40:30;30.30;99.90
790;DHT22;378;48.844;9.156;2022-08-25T09:43:08;30.60;99.90
790;DHT22;378;48.844;9.156;2022-08-25T09:45:46;30.40;99.90
790;DHT22;378;48.844;9.156;2022-08-25T09:48:21;30.20;99.90
790;DHT22;378;48.844;9.156;2022-08-25T09:50:49;30.80;99.90
790;DHT22;378;48.844;9.156;2022-08-25T09:53:17;31.00;99.90
790;DHT22;378;48.844;9.156;2022-08-25T09:55:50;30.90;99.90
790;DHT22;378;48.844;9.156;2022-08-25T09:58:22;30.90;99.90
790;DHT22;378;48.844;9.156;2022-08-25T10:01:04;31.20;99.90
790;DHT22;378;48.844;9.156;2022-08-25T10:03:32;30.60;99.90
790;DHT22;378;48.844;9.156;2022-08-25T10:06:03;30.60;99.90
790;DHT22;378;48.844;9.156;2022-08-25T10:08:34;30.30;99.90
790;DHT22;378;48.844;9.156;2022-08-25T10:11:04;30.80;99.90
790;DHT22;378;48.844;9.156;2022-08-25T10:13:42;30.50;99.90
790;DHT22;378;48.844;9.156;2022-08-25T10:16:21;30.60;99.90
790;DHT22;378;48.844;9.156;2022-08-25T10:19:04;31.20;99.90
790;DHT22;378;48.844;9.156;2022-08-25T10:21:31;31.50;98.90
790;DHT22;378;48.844;9.156;2022-08-25T10:23:59;31.70;98.70
790;DHT22;378;48.844;9.156;2022-08-25T10:26:36;31.40;98.20
790;DHT22;378;48.844;9.156;2022-08-25T10:29:20;31.10;98.30
790;DHT22;378;48.844;9.156;2022-08-25T10:31:56;31.10;98.40
790;DHT22;378;48.844;9.156;2022-08-25T10:34:41;31.40;98.20
790;DHT22;378;48.844;9.156;2022-08-25T10:37:17;31.40;97.60
790;DHT22;378;48.844;9.156;2022-08-25T10:39:57;31.10;98.20
790;DHT22;378;48.844;9.156;2022-08-25T10:42:34;31.40;98.50
790;DHT22;378;48.844;9.156;2022-08-25T10:45:16;31.80;98.20
790;DHT22;378;48.844;9.156;2022-08-25T10:51:08;32.60;98.00
790;DHT22;378;48.844;9.156;2022-08-25T10:53:45;33.40;96.40
790;DHT22;378;48.844;9.156;2022-08-25T10:56:17;33.90;94.80
790;DHT22;378;48.844;9.156;2022-08-25T10:59:01;34.40;94.40
790;DHT22;378;48.844;9.156;2022-08-25T11:01:47;34.10;93.90
790;DHT22;378;48.844;9.156;2022-08-25T11:04:19;34.20;94.00
790;DHT22;378;48.844;9.156;2022-08-25T11:06:55;34.60;94.00
790;DHT22;378;48.844;9.156;2022-08-25T11:09:27;35.00;93.70
790;DHT22;378;48.844;9.156;2022-08-25T11:11:57;35.20;93.50
790;DHT22;378;48.844;9.156;2022-08-25T11:14:30;35.90;92.00
790;DHT22;378;48.844;9.156;2022-08-25T11:17:02;36.50;91.50
790;DHT22;378;48.844;9.156;2022-08-25T11:19:34;37.30;90.40
790;DHT22;378;48.844;9.156;2022-08-25T11:22:07;37.70;89.40
790;DHT22;378;48.844;9.156;2022-08-25T11:24:53;36.30;89.50
790;DHT22;378;48.844;9.156;2022-08-25T11:27:27;35.40;90.70
790;DHT22;378;48.844;9.156;2022-08-25T11:30:03;34.50;91.20
790;DHT22;378;48.844;9.156;2022-08-25T11:32:33;35.10;91.40
790;DHT22;378;48.844;9.156;2022-08-25T11:35:02;35.60;90.20
790;DHT22;378;48.844;9.156;2022-08-25T11:37:30;35.90;89.60
790;DHT22;378;48.844;9.156;2022-08-25T11:40:07;35.90;88.60
790;DHT22;378;48.844;9.156;2022-08-25T11:42:51;36.00;90.10
790;DHT22;378;48.844;9.156;2022-08-25T11:45:44;37.00;88.80
790;DHT22;378;48.844;9.156;2022-08-25T11:48:24;38.40;85.90
790;DHT22;378;48.844;9.156;2022-08-25T11:50:57;39.70;83.20
790;DHT22;378;48.844;9.156;2022-08-25T11:53:26;41.30;78.80
790;DHT22;378;48.844;9.156;2022-08-25T11:55:56;41.60;73.50
790;DHT22;378;48.844;9.156;2022-08-25T12:04:35;39.20;75.10
790;DHT22;378;48.844;9.156;2022-08-25T12:07:28;39.50;74.90
790;DHT22;378;48.844;9.156;2022-08-25T12:10:14;39.80;73.60
790;DHT22;378;48.844;9.156;2022-08-25T12:13:03;39.70;72.80
790;DHT22;378;48.844;9.156;2022-08-25T12:15:33;39.10;73.00
790;DHT22;378;48.844;9.156;2022-08-25T12:18:41;38.80;74.50
790;DHT22;378;48.844;9.156;2022-08-25T12:21:15;40.00;73.70
790;DHT22;378;48.844;9.156;2022-08-25T12:23:44;41.30;71.60
790;DHT22;378;48.844;9.156;2022-08-25T12:26:19;42.00;69.80
790;DHT22;378;48.844;9.156;2022-08-25T12:28:58;42.60;68.20
790;DHT22;378;48.844;9.156;2022-08-25T12:31:46;41.90;67.50
790;DHT22;378;48.844;9.156;2022-08-25T12:34:34;41.20;67.80
790;DHT22;378;48.844;9.156;2022-08-25T12:37:13;40.60;69.00
790;DHT22;378;48.844;9.156;2022-08-25T12:39:52;39.90;69.10
790;DHT22;378;48.844;9.156;2022-08-25T12:42:23;39.10;70.30
790;DHT22;378;48.844;9.156;2022-08-25T12:51:03;36.80;75.20
790;DHT22;378;48.844;9.156;2022-08-25T12:53:34;36.10;75.70
790;DHT22;378;48.844;9.156;2022-08-25T12:56:06;36.90;75.30
790;DHT22;378;48.844;9.156;2022-08-25T12:58:46;38.00;73.90
790;DHT22;378;48.844;9.156;2022-08-25T13:01:20;38.50;73.10
790;DHT22;378;48.844;9.156;2022-08-25T13:07:12;37.80;72.70
790;DHT22;378;48.844;9.156;2022-08-25T13:10:15;37.30;74.00
790;DHT22;378;48.844;9.156;2022-08-25T13:12:48;38.10;72.80
790;DHT22;378;48.844;9.156;2022-08-25T13:15:27;36.90;72.10
790;DHT22;378;48.844;9.156;2022-08-25T13:17:54;35.20;74.70
790;DHT22;378;48.844;9.156;2022-08-25T13:20:24;33.90;78.30
790;DHT22;378;48.844;9.156;2022-08-25T13:22:52;32.90;79.80
790;DHT22;378;48.844;9.156;2022-08-25T13:25:22;32.40;81.20
790;DHT22;378;48.844;9.156;2022-08-25T13:27:51;32.00;81.30
790;DHT22;378;48.844;9.156;2022-08-25T13:30:24;32.20;83.90
790;DHT22;378;48.844;9.156;2022-08-25T13:32:51;32.50;81.50
790;DHT22;378;48.844;9.156;2022-08-25T13:35:22;32.30;81.90
790;DHT22;378;48.844;9.156;2022-08-25T13:37:50;31.50;81.00
790;DHT22;378;48.844;9.156;2022-08-25T13:40:23;31.40;82.70
790;DHT22;378;48.844;9.156;2022-08-25T13:42:52;31.20;82.80
790;DHT22;378;48.844;9.156;2022-08-25T13:45:22;31.00;83.30
790;DHT22;378;48.844;9.156;2022-08-25T13:47:50;30.90;82.70
790;DHT22;378;48.844;9.156;2022-08-25T13:50:29;31.00;83.30
790;DHT22;378;48.844;9.156;2022-08-25T13:52:58;30.80;84.40
790;DHT22;378;48.844;9.156;2022-08-25T13:55:30;31.00;84.90
790;DHT22;378;48.844;9.156;2022-08-25T13:57:58;31.00;84.70
790;DHT22;378;48.844;9.156;2022-08-25T14:00:30;30.80;84.90
790;DHT22;378;48.844;9.156;2022-08-25T14:02:58;30.70;84.90
790;DHT22;378;48.844;9.156;2022-08-25T14:05:33;30.60;85.20
790;DHT22;378;48.844;9.156;2022-08-25T14:08:01;30.60;85.70
790;DHT22;378;48.844;9.156;2022-08-25T14:10:38;30.40;86.80
790;DHT22;378;48.844;9.156;2022-08-25T14:13:14;30.30;87.70
790;DHT22;378;48.844;9.156;2022-08-25T14:15:43;30.00;88.00
790;DHT22;378;48.844;9.156;2022-08-25T14:18:14;31.80;87.00
790;DHT22;378;48.844;9.156;2022-08-25T14:20:46;34.40;81.00
790;DHT22;378;48.844;9.156;2022-08-25T14:23:17;36.50;75.90
790;DHT22;378;48.844;9.156;2022-08-25T14:25:45;38.70;74.10
790;DHT22;378;48.844;9.156;2022-08-25T14:28:16;38.80;70.30
790;DHT22;378;48.844;9.156;2022-08-25T14:30:46;40.00;68.80
790;DHT22;378;48.844;9.156;2022-08-25T14:33:15;39.50;67.20
790;DHT22;378;48.844;9.156;2022-08-25T14:35:46;37.60;69.70
790;DHT22;378;48.844;9.156;2022-08-25T14:38:17;35.70;74.20
790;DHT22;378;48.844;9.156;2022-08-25T14:40:46;34.40;75.90
790;DHT22;378;48.844;9.156;2022-08-25T14:43:14;32.80;78.30
790;DHT22;378;48.844;9.156;2022-08-25T14:45:44;32.10;81.00
790;DHT22;378;48.844;9.156;2022-08-25T14:48:15;31.50;82.40
790;DHT22;378;48.844;9.156;2022-08-25T14:50:44;31.10;83.80
790;DHT22;378;48.844;9.156;2022-08-25T14:53:11;30.80;84.90
790;DHT22;378;48.844;9.156;2022-08-25T14:55:38;30.60;85.50
790;DHT22;378;48.844;9.156;2022-08-25T14:58:06;30.40;85.70
790;DHT22;378;48.844;9.156;2022-08-25T15:00:34;30.30;86.40
790;DHT22;378;48.844;9.156;2022-08-25T15:03:02;30.20;86.60
790;DHT22;378;48.844;9.156;2022-08-25T15:05:29;30.10;87.40
790;DHT22;378;48.844;9.156;2022-08-25T15:07:56;30.30;86.70
790;DHT22;378;48.844;9.156;2022-08-25T15:10:41;32.20;85.00
790;DHT22;378;48.844;9.156;2022-08-25T15:13:09;35.50;79.40
790;DHT22;378;48.844;9.156;2022-08-25T15:15:39;38.00;73.60
790;DHT22;378;48.844;9.156;2022-08-25T15:18:08;38.60;71.00
790;DHT22;378;48.844;9.156;2022-08-25T15:20:35;39.60;69.90
790;DHT22;378;48.844;9.156;2022-08-25T15:23:02;39.10;68.40
790;DHT22;378;48.844;9.156;2022-08-25T15:25:29;38.10;70.20
790;DHT22;378;48.844;9.156;2022-08-25T15:27:56;36.90;71.80
790;DHT22;378;48.844;9.156;2022-08-25T15:30:25;35.30;73.90
790;DHT22;378;48.844;9.156;2022-08-25T15:32:51;34.00;75.90
790;DHT22;378;48.844;9.156;2022-08-25T15:35:18;32.60;78.60
790;DHT22;378;48.844;9.156;2022-08-25T15:37:45;31.70;80.50
790;DHT22;378;48.844;9.156;2022-08-25T15:40:13;31.70;81.70
790;DHT22;378;48.844;9.156;2022-08-25T15:42:41;34.10;80.10
790;DHT22;378;48.844;9.156;2022-08-25T15:45:09;35.90;76.00
790;DHT22;378;48.844;9.156;2022-08-25T15:47:37;37.50;72.70
790;DHT22;378;48.844;9.156;2022-08-25T15:50:06;38.30;70.80
790;DHT22;378;48.844;9.156;2022-08-25T15:52:33;38.20;70.00
790;DHT22;378;48.844;9.156;2022-08-25T15:55:01;36.40;71.40
790;DHT22;378;48.844;9.156;2022-08-25T15:57:28;34.50;74.70
790;DHT22;378;48.844;9.156;2022-08-25T15:59:55;33.00;77.50
790;DHT22;378;48.844;9.156;2022-08-25T16:02:21;32.30;79.40
790;DHT22;378;48.844;9.156;2022-08-25T16:04:50;31.30;81.80
790;DHT22;378;48.844;9.156;2022-08-25T16:07:17;31.10;83.20
790;DHT22;378;48.844;9.156;2022-08-25T16:09:44;32.30;82.30
790;DHT22;378;48.844;9.156;2022-08-25T16:12:11;34.20;79.30
790;DHT22;378;48.844;9.156;2022-08-25T16:14:39;35.50;78.10
790;DHT22;378;48.844;9.156;2022-08-25T16:17:06;36.50;74.10
790;DHT22;378;48.844;9.156;2022-08-25T16:19:33;37.20;73.00
790;DHT22;378;48.844;9.156;2022-08-25T16:22:01;38.20;71.30
790;DHT22;378;48.844;9.156;2022-08-25T16:24:28;38.90;70.00
790;DHT22;378;48.844;9.156;2022-08-25T16:26:55;39.10;68.60
790;DHT22;378;48.844;9.156;2022-08-25T16:29:29;39.00;69.10
790;DHT22;378;48.844;9.156;2022-08-25T16:31:57;39.70;69.50
790;DHT22;378;48.844;9.156;2022-08-25T16:34:25;40.30;66.60
790;DHT22;378;48.844;9.156;2022-08-25T16:36:52;40.10;66.50
790;DHT22;378;48.844;9.156;2022-08-25T16:39:21;39.60;67.00
790;DHT22;378;48.844;9.156;2022-08-25T16:41:49;39.40;66.80
790;DHT22;378;48.844;9.156;2022-08-25T16:44:17;39.80;66.90
790;DHT22;378;48.844;9.156;2022-08-25T16:46:44;40.20;66.10
790;DHT22;378;48.844;9.156;2022-08-25T16:49:12;39.70;65.90
790;DHT22;378;48.844;9.156;2022-08-25T16:51:41;39.10;66.20
790;DHT22;378;48.844;9.156;2022-08-25T16:54:09;38.60;67.00
790;DHT22;378;48.844;9.156;2022-08-25T16:56:55;37.70;68.00
790;DHT22;378;48.844;9.156;2022-08-25T16:59:24;36.20;69.70
790;DHT22;378;48.844;9.156;2022-08-25T17:01:51;34.80;72.50
790;DHT22;378;48.844;9.156;2022-08-25T17:04:19;33.80;74.80
790;DHT22;378;48.844;9.156;2022-08-25T17:06:46;32.80;77.20
790;DHT22;378;48.844;9.156;2022-08-25T17:09:14;31.80;78.50
790;DHT22;378;48.844;9.156;2022-08-25T17:11:43;31.00;79.90
790;DHT22;378;48.844;9.156;2022-08-25T17:14:14;30.50;81.20
790;DHT22;378;48.844;9.156;2022-08-25T17:16:42;30.20;83.00
790;DHT22;378;48.844;9.156;2022-08-25T17:19:11;29.90;83.90
790;DHT22;378;48.844;9.156;2022-08-25T17:21:40;29.60;84.80